sensor_id;sensor_type;location;lat;lon;timestamp;P1;durP1;ratioP1;P2;durP2;ratioP2
33074;SDS011;19433;51.292;6.868;2022-12-18T00:01:48;6.90;;;6.20;;
33074;SDS011;19433;51.292;6.868;2022-12-18T00:04:21;7.70;;;5.40;;
33074;SDS011;19433;51.292;6.868;2022-12-18T00:06:48;7.97;;;6.70;;
33074;SDS011;19433;51.292;6.868;2022-12-18T00:09:14;6.70;;;6.00;;
33074;SDS011;19433;51.292;6.868;2022-12-18T00:11:39;7.87;;;5.63;;
33074;SDS011;19433;51.292;6.868;2022-12-18T00:14:05;7.87;;;5.70;;
33074;SDS011;19433;51.292;6.868;2022-12-18T00:16:31;7.83;;;7.23;;
33074;SDS011;19433;51.292;6.868;2022-12-18T00:19:00;6.77;;;5.70;;
33074;SDS011;19433;51.292;6.868;2022-12-18T00:21:26;7.00;;;5.60;;
33074;SDS011;19433;51.292;6.868;2022-12-18T00:23:53;7.43;;;5.80;;
33074;SDS011;19433;51.292;6.868;2022-12-18T00:26:22;8.97;;;6.70;;
33074;SDS011;19433;51.292;6.868;2022-12-18T00:28:53;7.67;;;5.90;;
33074;SDS011;19433;51.292;6.868;2022-12-18T00:31:21;7.17;;;6.17;;
33074;SDS011;19433;51.292;6.868;2022-12-18T00:33:48;7.00;;;5.80;;
33074;SDS011;19433;51.292;6.868;2022-12-18T00:36:18;8.47;;;6.17;;
33074;SDS011;19433;51.292;6.868;2022-12-18T00:38:45;7.47;;;6.43;;
33074;SDS011;19433;51.292;6.868;2022-12-18T00:41:12;7.83;;;6.07;;
33074;SDS011;19433;51.292;6.868;2022-12-18T00:43:59;9.07;;;6.53;;
33074;SDS011;19433;51.292;6.868;2022-12-18T00:46:25;8.40;;;6.67;;
33074;SDS011;19433;51.292;6.868;2022-12-18T00:48:52;9.70;;;6.23;;
33074;SDS011;19433;51.292;6.868;2022-12-18T00:51:18;9.77;;;6.00;;
33074;SDS011;19433;51.292;6.868;2022-12-18T00:53:43;8.13;;;5.97;;
33074;SDS011;19433;51.292;6.868;2022-12-18T00:56:09;8.60;;;6.63;;
33074;SDS011;19433;51.292;6.868;2022-12-18T00:58:35;8.03;;;6.30;;
33074;SDS011;19433;51.292;6.868;2022-12-18T01:01:00;7.97;;;6.53;;
33074;SDS011;19433;51.292;6.868;2022-12-18T01:03:26;6.90;;;5.43;;
33074;SDS011;19433;51.292;6.868;2022-12-18T01:05:52;6.87;;;5.90;;
33074;SDS011;19433;51.292;6.868;2022-12-18T01:08:18;7.83;;;6.13;;
33074;SDS011;19433;51.292;6.868;2022-12-18T01:10:46;9.50;;;5.97;;
33074;SDS011;19433;51.292;6.868;2022-12-18T01:13:12;11.37;;;6.07;;
33074;SDS011;19433;51.292;6.868;2022-12-18T01:15:38;8.63;;;6.13;;
33074;SDS011;19433;51.292;6.868;2022-12-18T01:18:04;8.23;;;5.90;;
33074;SDS011;19433;51.292;6.868;2022-12-18T01:20:31;7.83;;;6.17;;
33074;SDS011;19433;51.292;6.868;2022-12-18T01:22:56;7.77;;;6.30;;
33074;SDS011;19433;51.292;6.868;2022-12-18T01:25:22;8.13;;;6.23;;
33074;SDS011;19433;51.292;6.868;2022-12-18T01:27:47;10.27;;;6.67;;
33074;SDS011;19433;51.292;6.868;2022-12-18T01:30:13;10.17;;;6.47;;
33074;SDS011;19433;51.292;6.868;2022-12-18T01:32:39;8.43;;;6.13;;
33074;SDS011;19433;51.292;6.868;2022-12-18T01:35:05;8.43;;;6.03;;
33074;SDS011;19433;51.292;6.868;2022-12-18T01:37:31;11.40;;;6.33;;
33074;SDS011;19433;51.292;6.868;2022-12-18T01:39:56;6.80;;;5.60;;
33074;SDS011;19433;51.292;6.868;2022-12-18T01:42:22;9.73;;;6.33;;
33074;SDS011;19433;51.292;6.868;2022-12-18T01:44:55;7.00;;;5.33;;
33074;SDS011;19433;51.292;6.868;2022-12-18T01:49:53;8.40;;;6.60;;
33074;SDS011;19433;51.292;6.868;2022-12-18T01:52:19;9.37;;;6.40;;
33074;SDS011;19433;51.292;6.868;2022-12-18T01:54:47;8.50;;;6.70;;
33074;SDS011;19433;51.292;6.868;2022-12-18T01:57:16;7.03;;;5.90;;
33074;SDS011;19433;51.292;6.868;2022-12-18T01:59:42;7.40;;;5.77;;
33074;SDS011;19433;51.292;6.868;2022-12-18T02:02:09;7.60;;;6.30;;
33074;SDS011;19433;51.292;6.868;2022-12-18T02:04:34;9.87;;;8.57;;
33074;SDS011;19433;51.292;6.868;2022-12-18T02:07:05;7.33;;;5.10;;
33074;SDS011;19433;51.292;6.868;2022-12-18T02:09:50;6.37;;;5.47;;
33074;SDS011;19433;51.292;6.868;2022-12-18T02:12:24;7.30;;;6.60;;
33074;SDS011;19433;51.292;6.868;2022-12-18T02:15:00;9.50;;;6.10;;
33074;SDS011;19433;51.292;6.868;2022-12-18T02:17:47;8.37;;;7.20;;
33074;SDS011;19433;51.292;6.868;2022-12-18T02:20:21;7.90;;;5.80;;
33074;SDS011;19433;51.292;6.868;2022-12-18T02:26:00;8.20;;;6.10;;
33074;SDS011;19433;51.292;6.868;2022-12-18T02:28:31;10.00;;;6.80;;
33074;SDS011;19433;51.292;6.868;2022-12-18T02:31:01;7.23;;;6.53;;
33074;SDS011;19433;51.292;6.868;2022-12-18T02:33:30;6.40;;;5.70;;
33074;SDS011;19433;51.292;6.868;2022-12-18T02:35:56;7.90;;;6.40;;
33074;SDS011;19433;51.292;6.868;2022-12-18T02:38:23;7.57;;;5.83;;
33074;SDS011;19433;51.292;6.868;2022-12-18T02:40:50;6.90;;;5.80;;
33074;SDS011;19433;51.292;6.868;2022-12-18T02:43:18;11.80;;;7.10;;
33074;SDS011;19433;51.292;6.868;2022-12-18T02:45:52;7.20;;;5.37;;
33074;SDS011;19433;51.292;6.868;2022-12-18T02:48:25;8.57;;;5.90;;
33074;SDS011;19433;51.292;6.868;2022-12-18T02:53:58;9.43;;;5.73;;
33074;SDS011;19433;51.292;6.868;2022-12-18T02:56:35;8.03;;;6.67;;
33074;SDS011;19433;51.292;6.868;2022-12-18T02:59:10;6.80;;;5.27;;
33074;SDS011;19433;51.292;6.868;2022-12-18T03:04:44;8.40;;;6.17;;
33074;SDS011;19433;51.292;6.868;2022-12-18T03:07:23;8.63;;;5.57;;
33074;SDS011;19433;51.292;6.868;2022-12-18T03:09:58;7.53;;;5.93;;
33074;SDS011;19433;51.292;6.868;2022-12-18T03:12:30;6.83;;;5.20;;
33074;SDS011;19433;51.292;6.868;2022-12-18T03:17:41;7.17;;;5.33;;
33074;SDS011;19433;51.292;6.868;2022-12-18T03:20:12;6.60;;;5.90;;
33074;SDS011;19433;51.292;6.868;2022-12-18T03:22:42;7.17;;;5.37;;
33074;SDS011;19433;51.292;6.868;2022-12-18T03:25:13;8.60;;;5.30;;
33074;SDS011;19433;51.292;6.868;2022-12-18T03:27:41;7.00;;;6.30;;
33074;SDS011;19433;51.292;6.868;2022-12-18T03:30:11;7.60;;;5.37;;
33074;SDS011;19433;51.292;6.868;2022-12-18T03:35:25;8.33;;;5.43;;
33074;SDS011;19433;51.292;6.868;2022-12-18T03:37:53;5.67;;;5.07;;
33074;SDS011;19433;51.292;6.868;2022-12-18T03:40:20;6.30;;;5.37;;
33074;SDS011;19433;51.292;6.868;2022-12-18T03:42:52;5.30;;;4.80;;
33074;SDS011;19433;51.292;6.868;2022-12-18T03:45:32;6.70;;;5.27;;
33074;SDS011;19433;51.292;6.868;2022-12-18T03:48:17;6.53;;;4.37;;
33074;SDS011;19433;51.292;6.868;2022-12-18T03:50:52;7.80;;;5.70;;
33074;SDS011;19433;51.292;6.868;2022-12-18T03:56:00;7.37;;;5.63;;
33074;SDS011;19433;51.292;6.868;2022-12-18T03:58:27;5.37;;;4.87;;
33074;SDS011;19433;51.292;6.868;2022-12-18T04:00:58;6.30;;;4.90;;
33074;SDS011;19433;51.292;6.868;2022-12-18T04:03:27;6.57;;;4.70;;
33074;SDS011;19433;51.292;6.868;2022-12-18T04:05:56;5.90;;;5.23;;
33074;SDS011;19433;51.292;6.868;2022-12-18T04:08:26;5.77;;;4.73;;
33074;SDS011;19433;51.292;6.868;2022-12-18T04:10:52;6.67;;;5.33;;
33074;SDS011;19433;51.292;6.868;2022-12-18T04:13:24;6.37;;;5.17;;
33074;SDS011;19433;51.292;6.868;2022-12-18T04:15:53;4.77;;;4.20;;
33074;SDS011;19433;51.292;6.868;2022-12-18T04:18:18;5.90;;;5.00;;
33074;SDS011;19433;51.292;6.868;2022-12-18T04:20:44;5.77;;;4.87;;
33074;SDS011;19433;51.292;6.868;2022-12-18T04:23:10;7.30;;;4.97;;
33074;SDS011;19433;51.292;6.868;2022-12-18T04:25:36;4.33;;;3.93;;
33074;SDS011;19433;51.292;6.868;2022-12-18T04:28:02;4.93;;;4.10;;
33074;SDS011;19433;51.292;6.868;2022-12-18T04:30:28;6.77;;;4.87;;
33074;SDS011;19433;51.292;6.868;2022-12-18T04:32:54;5.03;;;4.17;;
33074;SDS011;19433;51.292;6.868;2022-12-18T04:35:19;5.07;;;4.57;;
33074;SDS011;19433;51.292;6.868;2022-12-18T04:37:45;6.07;;;5.40;;
33074;SDS011;19433;51.292;6.868;2022-12-18T04:40:11;5.10;;;4.57;;
33074;SDS011;19433;51.292;6.868;2022-12-18T04:42:38;5.13;;;4.50;;
33074;SDS011;19433;51.292;6.868;2022-12-18T04:45:04;6.17;;;5.37;;
33074;SDS011;19433;51.292;6.868;2022-12-18T04:47:30;6.43;;;4.07;;
33074;SDS011;19433;51.292;6.868;2022-12-18T04:49:56;6.80;;;4.07;;
33074;SDS011;19433;51.292;6.868;2022-12-18T04:52:21;5.60;;;4.10;;
33074;SDS011;19433;51.292;6.868;2022-12-18T04:54:47;5.27;;;4.60;;
33074;SDS011;19433;51.292;6.868;2022-12-18T04:57:13;6.73;;;4.63;;
33074;SDS011;19433;51.292;6.868;2022-12-18T04:59:39;4.43;;;4.03;;
33074;SDS011;19433;51.292;6.868;2022-12-18T05:02:05;3.60;;;3.40;;
33074;SDS011;19433;51.292;6.868;2022-12-18T05:04:30;8.70;;;3.97;;
33074;SDS011;19433;51.292;6.868;2022-12-18T05:06:56;6.60;;;4.00;;
33074;SDS011;19433;51.292;6.868;2022-12-18T05:09:22;4.80;;;3.80;;
33074;SDS011;19433;51.292;6.868;2022-12-18T05:11:48;4.33;;;3.93;;
33074;SDS011;19433;51.292;6.868;2022-12-18T05:14:14;4.50;;;4.10;;
33074;SDS011;19433;51.292;6.868;2022-12-18T05:16:40;4.23;;;3.83;;
33074;SDS011;19433;51.292;6.868;2022-12-18T05:19:06;4.93;;;4.43;;
33074;SDS011;19433;51.292;6.868;2022-12-18T05:21:32;3.33;;;3.03;;
33074;SDS011;19433;51.292;6.868;2022-12-18T05:23:57;4.93;;;3.57;;
33074;SDS011;19433;51.292;6.868;2022-12-18T05:26:23;5.10;;;4.07;;
33074;SDS011;19433;51.292;6.868;2022-12-18T05:28:49;4.60;;;3.97;;
33074;SDS011;19433;51.292;6.868;2022-12-18T05:31:14;4.50;;;4.10;;
33074;SDS011;19433;51.292;6.868;2022-12-18T05:33:40;4.77;;;4.30;;
33074;SDS011;19433;51.292;6.868;2022-12-18T05:36:07;5.10;;;4.60;;
33074;SDS011;19433;51.292;6.868;2022-12-18T05:38:34;4.43;;;3.60;;
33074;SDS011;19433;51.292;6.868;2022-12-18T05:41:02;4.10;;;3.70;;
33074;SDS011;19433;51.292;6.868;2022-12-18T05:43:28;5.37;;;4.20;;
33074;SDS011;19433;51.292;6.868;2022-12-18T05:45:54;4.17;;;3.50;;
33074;SDS011;19433;51.292;6.868;2022-12-18T05:48:21;3.50;;;3.20;;
33074;SDS011;19433;51.292;6.868;2022-12-18T05:50:48;5.60;;;4.03;;
33074;SDS011;19433;51.292;6.868;2022-12-18T05:53:16;7.87;;;4.23;;
33074;SDS011;19433;51.292;6.868;2022-12-18T05:55:44;5.00;;;3.47;;
33074;SDS011;19433;51.292;6.868;2022-12-18T05:58:11;4.30;;;3.90;;
33074;SDS011;19433;51.292;6.868;2022-12-18T06:00:38;4.70;;;4.17;;
33074;SDS011;19433;51.292;6.868;2022-12-18T06:03:05;5.40;;;4.43;;
33074;SDS011;19433;51.292;6.868;2022-12-18T06:05:36;4.73;;;4.00;;
33074;SDS011;19433;51.292;6.868;2022-12-18T06:08:02;5.27;;;4.37;;
33074;SDS011;19433;51.292;6.868;2022-12-18T06:10:28;5.30;;;3.70;;
33074;SDS011;19433;51.292;6.868;2022-12-18T06:12:54;3.67;;;3.37;;
33074;SDS011;19433;51.292;6.868;2022-12-18T06:15:20;4.23;;;3.50;;
33074;SDS011;19433;51.292;6.868;2022-12-18T06:17:45;6.47;;;4.60;;
33074;SDS011;19433;51.292;6.868;2022-12-18T06:20:11;4.80;;;4.00;;
33074;SDS011;19433;51.292;6.868;2022-12-18T06:22:37;4.43;;;4.03;;
33074;SDS011;19433;51.292;6.868;2022-12-18T06:25:02;5.53;;;4.77;;
33074;SDS011;19433;51.292;6.868;2022-12-18T06:27:28;6.20;;;4.30;;
33074;SDS011;19433;51.292;6.868;2022-12-18T06:29:54;5.10;;;4.30;;
33074;SDS011;19433;51.292;6.868;2022-12-18T06:32:19;7.30;;;4.40;;
33074;SDS011;19433;51.292;6.868;2022-12-18T06:34:45;5.10;;;3.80;;
33074;SDS011;19433;51.292;6.868;2022-12-18T06:37:10;4.40;;;4.00;;
33074;SDS011;19433;51.292;6.868;2022-12-18T06:39:36;7.00;;;4.57;;
33074;SDS011;19433;51.292;6.868;2022-12-18T06:42:02;5.60;;;4.60;;
33074;SDS011;19433;51.292;6.868;2022-12-18T06:44:28;5.80;;;5.20;;
33074;SDS011;19433;51.292;6.868;2022-12-18T06:46:54;5.40;;;4.13;;
33074;SDS011;19433;51.292;6.868;2022-12-18T06:49:20;6.03;;;4.70;;
33074;SDS011;19433;51.292;6.868;2022-12-18T06:51:46;4.70;;;4.40;;
33074;SDS011;19433;51.292;6.868;2022-12-18T06:54:12;6.13;;;4.13;;
33074;SDS011;19433;51.292;6.868;2022-12-18T06:56:38;5.57;;;4.30;;
33074;SDS011;19433;51.292;6.868;2022-12-18T06:59:03;5.20;;;4.60;;
33074;SDS011;19433;51.292;6.868;2022-12-18T07:04:55;5.10;;;4.50;;
33074;SDS011;19433;51.292;6.868;2022-12-18T07:07:20;8.10;;;5.20;;
33074;SDS011;19433;51.292;6.868;2022-12-18T07:09:45;5.70;;;5.20;;
33074;SDS011;19433;51.292;6.868;2022-12-18T08:44:07;8.00;;;6.43;;
33074;SDS011;19433;51.292;6.868;2022-12-18T08:47:10;6.97;;;6.27;;
33074;SDS011;19433;51.292;6.868;2022-12-18T08:52:58;6.50;;;5.33;;
33074;SDS011;19433;51.292;6.868;2022-12-18T08:58:53;6.80;;;5.70;;
33074;SDS011;19433;51.292;6.868;2022-12-18T09:04:41;5.60;;;5.03;;
33074;SDS011;19433;51.292;6.868;2022-12-18T09:10:29;6.33;;;5.40;;
33074;SDS011;19433;51.292;6.868;2022-12-18T09:21:39;6.90;;;5.73;;
33074;SDS011;19433;51.292;6.868;2022-12-18T09:24:05;6.70;;;6.10;;
33074;SDS011;19433;51.292;6.868;2022-12-18T09:55:40;7.47;;;6.70;;
33074;SDS011;19433;51.292;6.868;2022-12-18T10:01:37;11.90;;;8.37;;
33074;SDS011;19433;51.292;6.868;2022-12-18T10:07:29;9.77;;;7.30;;
33074;SDS011;19433;51.292;6.868;2022-12-18T10:26:50;6.80;;;6.10;;
33074;SDS011;19433;51.292;6.868;2022-12-18T10:29:17;6.63;;;5.93;;
33074;SDS011;19433;51.292;6.868;2022-12-18T10:31:43;7.60;;;6.20;;
33074;SDS011;19433;51.292;6.868;2022-12-18T10:34:26;7.20;;;5.63;;
33074;SDS011;19433;51.292;6.868;2022-12-18T10:48:54;7.53;;;6.17;;
33074;SDS011;19433;51.292;6.868;2022-12-18T10:51:25;8.13;;;6.03;;
33074;SDS011;19433;51.292;6.868;2022-12-18T10:53:54;6.83;;;6.00;;
33074;SDS011;19433;51.292;6.868;2022-12-18T11:03:00;7.13;;;5.60;;
33074;SDS011;19433;51.292;6.868;2022-12-18T11:05:30;7.03;;;6.30;;
33074;SDS011;19433;51.292;6.868;2022-12-18T11:07:57;7.40;;;6.30;;
33074;SDS011;19433;51.292;6.868;2022-12-18T11:13:21;9.40;;;6.70;;
33074;SDS011;19433;51.292;6.868;2022-12-18T11:21:53;10.57;;;6.63;;
33074;SDS011;19433;51.292;6.868;2022-12-18T11:24:20;7.60;;;5.50;;
33074;SDS011;19433;51.292;6.868;2022-12-18T11:27:05;9.10;;;6.37;;
33074;SDS011;19433;51.292;6.868;2022-12-18T11:29:41;8.67;;;6.50;;
33074;SDS011;19433;51.292;6.868;2022-12-18T11:32:19;7.87;;;6.40;;
33074;SDS011;19433;51.292;6.868;2022-12-18T11:34:52;9.50;;;6.20;;
33074;SDS011;19433;51.292;6.868;2022-12-18T11:37:24;7.27;;;6.30;;
33074;SDS011;19433;51.292;6.868;2022-12-18T11:39:58;9.00;;;6.87;;
33074;SDS011;19433;51.292;6.868;2022-12-18T11:42:30;7.80;;;6.23;;
33074;SDS011;19433;51.292;6.868;2022-12-18T11:45:35;7.50;;;6.20;;
33074;SDS011;19433;51.292;6.868;2022-12-18T11:47:57;7.30;;;5.67;;
33074;SDS011;19433;51.292;6.868;2022-12-18T11:53:01;10.70;;;7.63;;
33074;SDS011;19433;51.292;6.868;2022-12-18T12:00:46;7.20;;;6.47;;
33074;SDS011;19433;51.292;6.868;2022-12-18T12:19:51;9.03;;;7.13;;
33074;SDS011;19433;51.292;6.868;2022-12-18T12:25:04;12.03;;;8.00;;
33074;SDS011;19433;51.292;6.868;2022-12-18T12:30:20;10.20;;;8.40;;
33074;SDS011;19433;51.292;6.868;2022-12-18T12:35:59;8.80;;;7.60;;
33074;SDS011;19433;51.292;6.868;2022-12-18T12:39:10;10.33;;;8.60;;
33074;SDS011;19433;51.292;6.868;2022-12-18T12:41:32;9.83;;;8.23;;
33074;SDS011;19433;51.292;6.868;2022-12-18T12:44:19;14.20;;;8.07;;
33074;SDS011;19433;51.292;6.868;2022-12-18T12:46:49;9.87;;;7.30;;
33074;SDS011;19433;51.292;6.868;2022-12-18T12:49:20;10.30;;;8.50;;
33074;SDS011;19433;51.292;6.868;2022-12-18T12:51:50;11.37;;;9.10;;
33074;SDS011;19433;51.292;6.868;2022-12-18T12:54:24;12.83;;;8.60;;
33074;SDS011;19433;51.292;6.868;2022-12-18T12:56:55;11.80;;;10.43;;
33074;SDS011;19433;51.292;6.868;2022-12-18T13:51:04;17.97;;;10.27;;
33074;SDS011;19433;51.292;6.868;2022-12-18T13:53:44;15.27;;;11.90;;
33074;SDS011;19433;51.292;6.868;2022-12-18T14:04:16;14.30;;;10.33;;
33074;SDS011;19433;51.292;6.868;2022-12-18T14:06:45;15.03;;;9.60;;
33074;SDS011;19433;51.292;6.868;2022-12-18T14:09:13;15.03;;;10.70;;
33074;SDS011;19433;51.292;6.868;2022-12-18T14:14:18;13.90;;;10.10;;
33074;SDS011;19433;51.292;6.868;2022-12-18T14:19:19;15.40;;;12.33;;
33074;SDS011;19433;51.292;6.868;2022-12-18T14:21:47;16.73;;;11.07;;
33074;SDS011;19433;51.292;6.868;2022-12-18T14:24:19;14.43;;;11.17;;
33074;SDS011;19433;51.292;6.868;2022-12-18T14:26:47;13.70;;;11.40;;
33074;SDS011;19433;51.292;6.868;2022-12-18T14:29:27;15.40;;;11.00;;
33074;SDS011;19433;51.292;6.868;2022-12-18T14:37:13;13.93;;;11.40;;
33074;SDS011;19433;51.292;6.868;2022-12-18T14:39:40;12.03;;;10.60;;
33074;SDS011;19433;51.292;6.868;2022-12-18T14:44:52;17.23;;;12.67;;
33074;SDS011;19433;51.292;6.868;2022-12-18T14:55:03;18.93;;;13.53;;
33074;SDS011;19433;51.292;6.868;2022-12-18T14:57:31;19.83;;;12.33;;
33074;SDS011;19433;51.292;6.868;2022-12-18T15:00:06;13.67;;;10.80;;
33074;SDS011;19433;51.292;6.868;2022-12-18T15:02:40;14.60;;;10.80;;
33074;SDS011;19433;51.292;6.868;2022-12-18T15:10:25;14.83;;;11.13;;
33074;SDS011;19433;51.292;6.868;2022-12-18T15:18:04;16.30;;;11.63;;
33074;SDS011;19433;51.292;6.868;2022-12-18T15:20:50;15.47;;;13.40;;
33074;SDS011;19433;51.292;6.868;2022-12-18T15:26:00;14.90;;;10.90;;
33074;SDS011;19433;51.292;6.868;2022-12-18T15:33:37;11.83;;;10.33;;
33074;SDS011;19433;51.292;6.868;2022-12-18T15:36:07;16.83;;;11.80;;
33074;SDS011;19433;51.292;6.868;2022-12-18T15:41:13;16.20;;;12.30;;
33074;SDS011;19433;51.292;6.868;2022-12-18T15:43:40;12.23;;;10.97;;
33074;SDS011;19433;51.292;6.868;2022-12-18T15:46:09;18.23;;;13.97;;
33074;SDS011;19433;51.292;6.868;2022-12-18T15:48:41;14.17;;;12.73;;
33074;SDS011;19433;51.292;6.868;2022-12-18T15:56:19;16.30;;;12.80;;
33074;SDS011;19433;51.292;6.868;2022-12-18T15:59:13;19.57;;;12.87;;
33074;SDS011;19433;51.292;6.868;2022-12-18T16:04:17;16.30;;;12.17;;
33074;SDS011;19433;51.292;6.868;2022-12-18T16:06:45;18.67;;;13.47;;
33074;SDS011;19433;51.292;6.868;2022-12-18T16:27:17;20.70;;;14.47;;
33074;SDS011;19433;51.292;6.868;2022-12-18T20:15:13;25.93;;;16.50;;
33074;SDS011;19433;51.292;6.868;2022-12-18T20:17:39;25.40;;;17.93;;
33074;SDS011;19433;51.292;6.868;2022-12-18T20:20:05;28.37;;;18.60;;
33074;SDS011;19433;51.292;6.868;2022-12-18T20:22:31;28.73;;;19.00;;
33074;SDS011;19433;51.292;6.868;2022-12-18T20:24:57;26.20;;;19.10;;
33074;SDS011;19433;51.292;6.868;2022-12-18T20:27:22;23.37;;;16.90;;
33074;SDS011;19433;51.292;6.868;2022-12-18T20:29:48;28.17;;;18.47;;
33074;SDS011;19433;51.292;6.868;2022-12-18T20:47:45;30.13;;;18.60;;
33074;SDS011;19433;51.292;6.868;2022-12-18T20:52:46;24.60;;;17.40;;
33074;SDS011;19433;51.292;6.868;2022-12-18T20:55:12;31.27;;;19.20;;
33074;SDS011;19433;51.292;6.868;2022-12-18T21:41:36;25.50;;;18.47;;
33074;SDS011;19433;51.292;6.868;2022-12-18T22:00:38;28.47;;;19.43;;
33074;SDS011;19433;51.292;6.868;2022-12-18T22:03:03;31.13;;;18.93;;
33074;SDS011;19433;51.292;6.868;2022-12-18T22:10:40;26.23;;;17.30;;
33074;SDS011;19433;51.292;6.868;2022-12-18T22:23:26;28.73;;;19.20;;
33074;SDS011;19433;51.292;6.868;2022-12-18T22:25:52;28.37;;;17.67;;
33074;SDS011;19433;51.292;6.868;2022-12-18T22:28:18;26.27;;;18.70;;
33074;SDS011;19433;51.292;6.868;2022-12-18T22:38:46;40.73;;;19.67;;
33074;SDS011;19433;51.292;6.868;2022-12-18T22:41:12;26.40;;;16.97;;
33074;SDS011;19433;51.292;6.868;2022-12-18T22:43:38;29.80;;;18.63;;
33074;SDS011;19433;51.292;6.868;2022-12-18T22:46:03;28.00;;;18.37;;
33074;SDS011;19433;51.292;6.868;2022-12-18T22:48:29;30.70;;;20.10;;
33074;SDS011;19433;51.292;6.868;2022-12-18T22:50:54;29.50;;;18.23;;
33074;SDS011;19433;51.292;6.868;2022-12-18T22:53:19;31.73;;;20.70;;
33074;SDS011;19433;51.292;6.868;2022-12-18T22:55:45;28.40;;;17.43;;
33074;SDS011;19433;51.292;6.868;2022-12-18T22:58:10;34.33;;;20.90;;
33074;SDS011;19433;51.292;6.868;2022-12-18T23:00:35;31.20;;;20.00;;
33074;SDS011;19433;51.292;6.868;2022-12-18T23:03:01;28.40;;;18.17;;
33074;SDS011;19433;51.292;6.868;2022-12-18T23:05:27;26.80;;;18.60;;
33074;SDS011;19433;51.292;6.868;2022-12-18T23:07:53;29.80;;;18.70;;
33074;SDS011;19433;51.292;6.868;2022-12-18T23:10:19;31.90;;;19.97;;
33074;SDS011;19433;51.292;6.868;2022-12-18T23:12:45;34.30;;;20.20;;
33074;SDS011;19433;51.292;6.868;2022-12-18T23:15:10;29.70;;;20.67;;
33074;SDS011;19433;51.292;6.868;2022-12-18T23:17:36;31.53;;;20.77;;
33074;SDS011;19433;51.292;6.868;2022-12-18T23:20:01;35.83;;;22.30;;
33074;SDS011;19433;51.292;6.868;2022-12-18T23:22:28;30.20;;;19.17;;
33074;SDS011;19433;51.292;6.868;2022-12-18T23:25:00;30.70;;;20.37;;
33074;SDS011;19433;51.292;6.868;2022-12-18T23:27:29;31.30;;;19.80;;
33074;SDS011;19433;51.292;6.868;2022-12-18T23:29:54;35.70;;;22.30;;
33074;SDS011;19433;51.292;6.868;2022-12-18T23:32:20;33.13;;;21.23;;
33074;SDS011;19433;51.292;6.868;2022-12-18T23:35:01;34.87;;;22.70;;
33074;SDS011;19433;51.292;6.868;2022-12-18T23:47:04;31.27;;;20.87;;
33074;SDS011;19433;51.292;6.868;2022-12-18T23:49:48;30.77;;;21.13;;
